createdAt,value
2019-03-22T00:00:34.510Z,9.90
2019-03-22T00:04:53.552Z,9.80
2019-03-22T00:09:13.049Z,9.70
2019-03-22T00:13:32.458Z,9.60
2019-03-22T00:17:51.506Z,9.50
2019-03-22T00:22:10.505Z,9.50
2019-03-22T00:26:32.408Z,9.50
2019-03-22T00:30:51.501Z,9.40
2019-03-22T00:35:10.720Z,9.30
2019-03-22T00:39:29.856Z,9.30
2019-03-22T00:43:48.830Z,9.30
2019-03-22T00:48:07.797Z,9.20
2019-03-22T00:52:26.921Z,9.20
2019-03-22T00:56:45.863Z,9.10
2019-03-22T01:01:04.795Z,9.10
2019-03-22T01:05:24.514Z,9.00
2019-03-22T01:09:43.405Z,9.00
2019-03-22T01:14:02.663Z,8.90
2019-03-22T01:18:22.115Z,8.90
2019-03-22T01:22:41.164Z,8.80
2019-03-22T01:27:00.905Z,8.80
2019-03-22T01:31:20.704Z,8.70
2019-03-22T01:35:40.090Z,8.60
2019-03-22T01:39:59.052Z,8.60
2019-03-22T01:44:17.964Z,8.60
2019-03-22T01:48:37.373Z,8.60
2019-03-22T01:52:57.094Z,8.50
2019-03-22T01:57:16.018Z,8.50
2019-03-22T02:01:35.859Z,8.40
2019-03-22T02:05:56.215Z,8.40
2019-03-22T02:10:16.353Z,8.30
2019-03-22T02:14:35.950Z,8.30
2019-03-22T02:18:54.882Z,8.20
2019-03-22T02:23:14.010Z,8.20
2019-03-22T02:27:33.351Z,8.20
2019-03-22T02:31:52.322Z,8.20
2019-03-22T02:36:11.802Z,8.10
2019-03-22T02:40:30.823Z,8.10
2019-03-22T02:44:49.847Z,8.00
2019-03-22T02:49:08.843Z,7.90
2019-03-22T02:53:30.215Z,7.90
2019-03-22T02:57:48.782Z,7.80
2019-03-22T03:02:07.759Z,7.80
2019-03-22T03:06:26.781Z,7.70
2019-03-22T03:10:45.775Z,7.70
2019-03-22T03:15:05.554Z,7.70
2019-03-22T03:19:24.707Z,7.60
2019-03-22T03:23:43.747Z,7.60
2019-03-22T03:28:02.674Z,7.60
2019-03-22T03:32:21.683Z,7.50
2019-03-22T03:36:40.724Z,7.50
2019-03-22T03:40:59.675Z,7.40
2019-03-22T03:45:33.886Z,7.40
2019-03-22T03:49:53.258Z,7.30
2019-03-22T03:54:12.568Z,7.30
2019-03-22T03:58:32.531Z,7.30
2019-03-22T04:02:51.412Z,7.30
2019-03-22T04:07:11.664Z,7.20
2019-03-22T04:11:31.022Z,7.20
2019-03-22T04:15:50.136Z,7.10
2019-03-22T04:20:09.483Z,7.10
2019-03-22T04:24:28.546Z,7.00
2019-03-22T04:28:47.809Z,7.00
2019-03-22T04:33:07.178Z,7.00
2019-03-22T04:37:26.463Z,7.00
2019-03-22T04:41:45.804Z,6.90
2019-03-22T04:46:05.416Z,6.90
2019-03-22T04:50:27.392Z,6.80
2019-03-22T04:54:50.665Z,6.80
2019-03-22T04:59:19.335Z,6.80
2019-03-22T05:03:40.558Z,6.60
2019-03-22T05:08:00.349Z,6.60
2019-03-22T05:12:22.821Z,6.70
2019-03-22T05:16:46.113Z,6.70
2019-03-22T05:21:06.985Z,6.70
2019-03-22T05:25:28.276Z,6.60
2019-03-22T05:29:51.053Z,6.60
2019-03-22T05:34:10.056Z,6.60
2019-03-22T05:38:29.141Z,6.50
2019-03-22T05:42:48.385Z,6.60
2019-03-22T05:47:07.284Z,6.60
2019-03-22T05:51:26.407Z,6.60
2019-03-22T05:55:45.340Z,6.60
2019-03-22T06:00:05.205Z,6.60
2019-03-22T06:04:24.355Z,6.70
2019-03-22T06:08:43.826Z,6.70
2019-03-22T06:13:02.955Z,6.80
2019-03-22T06:17:21.979Z,6.80
2019-03-22T06:21:41.082Z,6.90
2019-03-22T06:26:00.068Z,7.10
2019-03-22T06:30:19.043Z,7.20
2019-03-22T06:34:38.487Z,7.30
2019-03-22T06:38:58.644Z,7.40
2019-03-22T06:43:18.218Z,7.50
2019-03-22T06:47:37.342Z,7.60
2019-03-22T06:51:56.239Z,7.80
2019-03-22T06:56:15.165Z,7.90
2019-03-22T07:00:34.666Z,8.10
2019-03-22T07:04:53.699Z,8.20
2019-03-22T07:09:12.988Z,8.30
2019-03-22T07:13:35.689Z,8.40
2019-03-22T07:17:54.666Z,8.50
2019-03-22T07:22:14.098Z,8.60
2019-03-22T07:26:33.301Z,8.60
2019-03-22T07:30:52.266Z,8.70
2019-03-22T07:35:11.470Z,8.90
2019-03-22T07:39:30.606Z,9.20
2019-03-22T07:43:49.561Z,10.00
2019-03-22T07:48:08.603Z,11.20
2019-03-22T07:52:27.665Z,12.70
2019-03-22T07:56:46.637Z,14.20
2019-03-22T08:01:05.704Z,15.60
2019-03-22T08:05:24.658Z,16.70
2019-03-22T08:09:43.608Z,17.80
2019-03-22T08:14:02.611Z,18.90
2019-03-22T08:18:21.919Z,19.90
2019-03-22T08:22:40.932Z,20.80
2019-03-22T08:27:00.026Z,21.60
2019-03-22T08:31:18.987Z,22.40
2019-03-22T08:35:37.837Z,23.00
2019-03-22T08:39:58.237Z,23.50
2019-03-22T08:44:18.868Z,24.00
2019-03-22T08:48:37.874Z,24.40
2019-03-22T08:52:56.711Z,25.00
2019-03-22T08:57:16.179Z,25.50
2019-03-22T09:01:35.067Z,25.90
2019-03-22T09:05:53.899Z,26.20
2019-03-22T09:10:13.321Z,26.50
2019-03-22T09:14:32.409Z,26.70
2019-03-22T09:18:52.134Z,26.90
2019-03-22T09:23:11.259Z,26.90
2019-03-22T09:27:30.283Z,27.00
2019-03-22T09:31:49.637Z,27.10
2019-03-22T09:36:08.810Z,27.30
2019-03-22T09:40:27.828Z,27.50
2019-03-22T09:44:46.905Z,27.60
2019-03-22T09:49:05.967Z,27.60
2019-03-22T09:53:24.961Z,27.40
2019-03-22T09:57:44.064Z,27.30
2019-03-22T10:02:03.812Z,27.30
2019-03-22T10:06:22.899Z,27.40
2019-03-22T10:10:42.418Z,27.50
2019-03-22T10:15:01.521Z,27.70
2019-03-22T10:19:22.023Z,27.90
2019-03-22T10:23:41.373Z,28.10
2019-03-22T10:28:00.358Z,28.30
2019-03-22T10:32:19.247Z,28.40
2019-03-22T10:36:38.604Z,28.60
2019-03-22T10:40:57.708Z,28.70
2019-03-22T10:45:16.779Z,28.60
2019-03-22T10:49:36.109Z,28.60
2019-03-22T10:53:55.580Z,28.60
2019-03-22T10:58:20.741Z,28.50
2019-03-22T11:02:35.123Z,28.40
2019-03-22T11:06:53.937Z,28.40
2019-03-22T11:11:12.937Z,28.40
2019-03-22T11:15:33.167Z,28.70
2019-03-22T11:19:52.683Z,28.70
2019-03-22T11:24:12.476Z,28.60
2019-03-22T11:28:32.462Z,28.60
2019-03-22T11:32:51.474Z,28.80
2019-03-22T11:37:10.412Z,29.00
2019-03-22T11:41:29.428Z,29.00
2019-03-22T11:45:48.706Z,29.00
2019-03-22T11:50:10.005Z,29.10
2019-03-22T11:54:28.958Z,28.90
2019-03-22T11:58:48.114Z,28.60
2019-03-22T12:03:07.926Z,28.40
2019-03-22T12:07:26.897Z,28.30
2019-03-22T12:11:47.884Z,28.30
2019-03-22T12:16:06.973Z,28.50
2019-03-22T12:20:26.458Z,28.80
2019-03-22T12:24:45.442Z,28.90
2019-03-22T12:29:04.456Z,28.70
2019-03-22T12:33:23.452Z,28.40
2019-03-22T12:37:42.495Z,28.30
2019-03-22T12:42:01.497Z,28.10
2019-03-22T12:46:21.545Z,27.90
2019-03-22T12:50:40.496Z,27.60
2019-03-22T12:54:59.792Z,27.30
2019-03-22T12:59:20.737Z,26.80
2019-03-22T13:03:39.620Z,26.40
2019-03-22T13:07:58.868Z,26.20
2019-03-22T13:12:17.731Z,26.00
2019-03-22T13:16:37.248Z,25.80
2019-03-22T13:20:56.064Z,25.50
2019-03-22T13:25:15.702Z,25.30
2019-03-22T13:29:35.338Z,25.10
2019-03-22T13:33:54.917Z,24.90
2019-03-22T13:38:14.174Z,24.80
2019-03-22T13:42:33.669Z,24.60
2019-03-22T13:46:53.067Z,24.50
2019-03-22T13:51:12.364Z,24.40
2019-03-22T13:55:31.341Z,24.40
2019-03-22T13:59:50.406Z,24.20
2019-03-22T14:04:09.330Z,24.10
2019-03-22T14:08:29.271Z,23.90
2019-03-22T14:12:49.096Z,23.80
2019-03-22T14:17:16.384Z,23.70
2019-03-22T14:21:36.309Z,23.60
2019-03-22T14:25:56.403Z,23.40
2019-03-22T14:30:16.352Z,23.30
2019-03-22T14:34:38.620Z,23.10
2019-03-22T14:38:59.259Z,23.00
2019-03-22T14:43:20.465Z,22.80
2019-03-22T14:47:39.544Z,22.70
2019-03-22T14:51:59.699Z,22.60
2019-03-22T14:56:19.689Z,22.50
2019-03-22T15:00:39.050Z,22.40
2019-03-22T15:04:58.203Z,22.20
2019-03-22T15:09:17.203Z,22.10
2019-03-22T15:13:55.353Z,21.90
2019-03-22T15:18:45.190Z,21.80
2019-03-22T15:23:23.588Z,21.70
2019-03-22T15:28:02.136Z,21.60
2019-03-22T15:32:57.069Z,21.60
2019-03-22T15:37:42.535Z,21.50
2019-03-22T15:42:02.631Z,21.50
2019-03-22T15:46:23.219Z,21.50
2019-03-22T15:50:43.105Z,21.40
2019-03-22T15:55:02.911Z,21.30
2019-03-22T15:59:22.791Z,21.30
2019-03-22T16:03:44.700Z,21.20
2019-03-22T16:08:04.970Z,21.10
2019-03-22T16:12:26.153Z,21.00
2019-03-22T16:16:46.901Z,20.90
2019-03-22T16:21:06.882Z,20.80
2019-03-22T16:25:30.661Z,20.70
2019-03-22T16:29:49.859Z,20.60
2019-03-22T16:34:08.881Z,20.50
2019-03-22T16:38:28.397Z,20.40
2019-03-22T16:42:47.889Z,20.30
2019-03-22T16:47:06.905Z,20.20
2019-03-22T16:51:27.514Z,20.10
2019-03-22T16:55:46.487Z,20.00
2019-03-22T17:00:06.325Z,19.80
2019-03-22T17:04:26.120Z,19.70
2019-03-22T17:08:45.395Z,19.50
2019-03-22T17:13:04.653Z,19.40
2019-03-22T17:17:23.801Z,19.20
2019-03-22T17:21:46.504Z,19.00
2019-03-22T17:26:06.720Z,18.90
2019-03-22T17:30:26.361Z,18.70
2019-03-22T17:34:45.903Z,18.50
2019-03-22T17:39:07.478Z,18.40
2019-03-22T17:43:26.562Z,18.30
2019-03-22T17:47:49.328Z,18.10
2019-03-22T17:52:08.268Z,18.00
2019-03-22T17:56:27.310Z,17.80
2019-03-22T18:00:47.297Z,17.70
2019-03-22T18:05:07.265Z,17.60
2019-03-22T18:09:26.796Z,17.40
2019-03-22T18:13:46.193Z,17.20
2019-03-22T18:18:06.950Z,17.10
2019-03-22T18:22:26.089Z,16.90
2019-03-22T18:26:44.991Z,16.80
2019-03-22T18:31:03.927Z,16.70
2019-03-22T18:35:23.204Z,16.60
2019-03-22T18:39:43.784Z,16.50
2019-03-22T18:44:03.663Z,16.40
2019-03-22T18:48:23.121Z,16.30
2019-03-22T18:52:42.183Z,16.30
2019-03-22T18:57:01.234Z,16.20
2019-03-22T19:01:20.249Z,16.20
2019-03-22T19:05:39.310Z,16.10
2019-03-22T19:09:58.294Z,16.00
2019-03-22T19:14:17.237Z,15.90
2019-03-22T19:18:36.324Z,15.80
2019-03-22T19:22:56.471Z,15.70
2019-03-22T19:27:16.760Z,15.60
2019-03-22T19:31:35.910Z,15.60
2019-03-22T19:35:58.197Z,15.50
2019-03-22T19:40:17.341Z,15.40
2019-03-22T19:44:36.806Z,15.30
2019-03-22T19:48:57.894Z,15.20
2019-03-22T19:53:17.371Z,15.10
2019-03-22T19:57:38.236Z,15.10
2019-03-22T20:01:57.246Z,15.00
2019-03-22T20:06:16.963Z,15.00
2019-03-22T20:10:36.579Z,14.90
2019-03-22T20:14:55.780Z,14.80
2019-03-22T20:19:15.510Z,14.70
2019-03-22T20:23:35.019Z,14.70
2019-03-22T20:27:53.987Z,14.60
2019-03-22T20:32:12.952Z,14.60
2019-03-22T20:36:33.442Z,14.50
2019-03-22T20:40:52.544Z,14.40
2019-03-22T20:45:11.856Z,14.40
2019-03-22T20:49:30.954Z,14.30
2019-03-22T20:53:49.906Z,14.20
2019-03-22T20:58:08.955Z,14.10
2019-03-22T21:02:27.989Z,14.00
2019-03-22T21:06:47.377Z,13.90
2019-03-22T21:11:06.433Z,13.90
2019-03-22T21:15:25.415Z,13.80
2019-03-22T21:19:44.818Z,13.80
2019-03-22T21:24:04.317Z,13.70
2019-03-22T21:28:23.353Z,13.70
2019-03-22T21:32:45.506Z,13.60
2019-03-22T21:37:03.464Z,13.60
2019-03-22T21:41:23.665Z,13.50
2019-03-22T21:45:42.637Z,13.40
2019-03-22T21:50:01.655Z,13.30
2019-03-22T21:54:21.393Z,13.20
2019-03-22T21:58:40.446Z,13.10
2019-03-22T22:02:59.276Z,13.00
2019-03-22T22:07:18.310Z,13.00
2019-03-22T22:11:37.589Z,12.90
2019-03-22T22:15:56.534Z,12.90
2019-03-22T22:20:15.654Z,12.80
2019-03-22T22:24:34.715Z,12.80
2019-03-22T22:28:53.755Z,12.70
2019-03-22T22:33:12.665Z,12.70
2019-03-22T22:37:31.655Z,12.60
2019-03-22T22:41:50.537Z,12.60
2019-03-22T22:46:10.915Z,12.50
2019-03-22T22:50:30.291Z,12.50
2019-03-22T22:54:49.730Z,12.40
2019-03-22T22:59:08.721Z,12.40
2019-03-22T23:03:28.029Z,12.30
2019-03-22T23:07:47.021Z,12.30
2019-03-22T23:12:07.485Z,12.30
2019-03-22T23:16:26.615Z,12.20
2019-03-22T23:20:45.708Z,12.10
2019-03-22T23:25:04.721Z,12.10
2019-03-22T23:29:24.729Z,12.00
2019-03-22T23:33:43.858Z,12.00
2019-03-22T23:38:03.804Z,11.90
2019-03-22T23:42:23.160Z,11.80
2019-03-22T23:46:42.086Z,11.80
2019-03-22T23:51:01.019Z,11.80
2019-03-22T23:55:20.222Z,11.70
2019-03-22T23:59:39.527Z,11.70
